Flight Track Log - Related Links

Times and Time Zones

All times are in EDT time to prevent confusion due to time zone crossing. See the ASH2834 flight status page for this flight to view local times or setup timezone preferences in your user account.

Time Position Orientation Groundspeed Altitude Reporting Facility
EDT Latitude Longitude Course Direction KTS MPH feet Rate Location/Type
Wed 01:02:35 AM 33.4333 -112.0333 235° Southwest 148 170 2,100  Level Phoenix TRACON
Wed 01:03:08 AM 33.4192 -112.0572 235° Southwest 161 185 2,900 2,362 Climbing Albuquerque Center
Wed 01:04:09 AM 33.3803 -112.0969 220° Southwest 201 231 5,800 2,628 Climbing Albuquerque Center
Wed 01:05:09 AM 33.3161 -112.0658 158° South 256 295 8,200 2,331 Climbing Albuquerque Center
Wed 01:06:10 AM 33.2544 -112.0094 143° Southeast 278 320 10,500 2,182 Climbing Albuquerque Center
Wed 01:07:10 AM 33.1828 -111.9411 141° Southeast 327 376 12,600 2,182 Climbing Albuquerque Center
Wed 01:08:11 AM 33.1039 -111.8661 141° Southeast 360 414 14,900 2,083 Climbing Albuquerque Center
Wed 01:09:11 AM 33.0225 -111.7875 141° Southeast 376 433 16,800 992 Climbing Albuquerque Center
Wed 01:10:12 AM 32.9339 -111.7047 142° Southeast 402 463 16,900 50 Climbing Albuquerque Center
Wed 01:11:12 AM 32.8442 -111.6175 141° Southeast 415 478 16,900 -583 Level Albuquerque Center
Wed 01:11:55 AM 32.7622 -111.5433 143° Southeast 427 491 15,900 -1,068 Descending Albuquerque Center
Wed 01:12:25 AM 32.7508 -111.5294 134° Southeast 427 491 15,600 -1,347 Descending Albuquerque Center
Wed 01:12:44 AM 32.6922 -111.4783 144° Southeast 416 479 14,800 -1,800 Descending Albuquerque Center
Wed 01:13:25 AM 32.6461 -111.4300 139° Southeast 400 460 13,800 -1,500 Descending Albuquerque Center
Wed 01:13:44 AM 32.6092 -111.4017 147° Southeast 388 447 13,300 -1,377 Descending Albuquerque Center
Wed 01:14:26 AM 32.5611 -111.3581 143° Southeast 382 440 12,400 -1,377 Descending Albuquerque Center
Wed 01:14:45 AM 32.5278 -111.3350 150° Southeast 349 402 11,900 -1,200 Descending Albuquerque Center
Wed 01:15:26 AM 32.4900 -111.2997 142° Southeast 328 377 11,200 -1,200 Descending Albuquerque Center
Wed 01:15:45 AM 32.4611 -111.2772 147° Southeast 299 344 10,700 -1,180 Descending Albuquerque Center
Wed 01:16:27 AM 32.4278 -111.2447 141° Southeast 290 334 10,000 -1,180 Descending Albuquerque Center
Wed 01:16:46 AM 32.3942 -111.2194 148° Southeast 276 318 9,500 -1,100 Descending Albuquerque Center
Wed 01:17:27 AM 32.3650 -111.1928 142° Southeast 279 321 8,900 -1,279 Descending Albuquerque Center
Wed 01:17:47 AM 32.3328 -111.1678 147° Southeast 276 318 8,200 -1,279 Descending Albuquerque Center
Wed 01:18:28 AM 32.3042 -111.1408 141° Southeast 273 314 7,600 -1,082 Descending Albuquerque Center
Wed 01:18:48 AM 32.2736 -111.1156 145° Southeast 264 304 7,100 -1,180 Descending Albuquerque Center
Wed 01:19:29 AM 32.2503 -111.0883 135° Southeast 261 300 6,400 -1,200 Descending Albuquerque Center
Wed 01:19:48 AM 32.2253 -111.0656 142° Southeast 232 267 5,900 -1,579 Descending Albuquerque Center

Login

Don't have an account? Register now (free) for customized features, flight alerts, and more!